Atchison, Kansas
Current Conditions -  °F | °C
As of 3:53 PM on Thursday 23 Oct 2014 (Local Time) from KSTJ Reporting Station
Scattered Clouds Scattered Clouds  
Wind Chill: 72°   Ceiling: Unl
Heat Index: 72°   Visibility: 10mi
Dew Point: 58°   Wind: 8mph
Humidity: 61%   Direction: 200°SSW
Pressure: 30.03"   Gusts: NA
Location:  39.56°N, 95.13°W
Report Text: KSTJ 232053Z AUTO 20007KT 10SM SCT035 22/14 A3003 RMK AO2 SLP164 T02220144 56017
Loading
Personal Weather Stations






























Interactive Weather Map
Tropical Storm Tracking
New forecast layout! Learn more

10-Day Weather Forecast

Advertisements
Track Severe Weather on mobile